sensor_id;sensor_type;location;lat;lon;timestamp;pressure;altitude;pressure_sealevel;temperature;humidity
47220;BME280;32961;51.936;4.788;2023-01-31T15:21:03;102047.38;;;7.95;95.34
47220;BME280;32961;51.936;4.788;2023-01-31T15:23:46;102025.63;;;7.82;95.04
47220;BME280;32961;51.936;4.788;2023-01-31T15:26:25;102050.66;;;8.00;94.27
47220;BME280;32961;51.936;4.788;2023-01-31T15:28:55;102055.69;;;7.92;95.18
47220;BME280;32961;51.936;4.788;2023-01-31T15:31:40;102041.47;;;7.88;95.30
47220;BME280;32961;51.936;4.788;2023-01-31T15:45:18;102071.66;;;7.96;94.39
47220;BME280;32961;51.936;4.788;2023-01-31T15:47:58;102076.66;;;7.88;91.59
47220;BME280;32961;51.936;4.788;2023-01-31T15:50:46;102075.41;;;7.94;92.56
47220;BME280;32961;51.936;4.788;2023-01-31T16:29:12;102138.13;;;7.71;92.08
47220;BME280;32961;51.936;4.788;2023-01-31T16:31:44;102127.19;;;7.73;92.89
47220;BME280;32961;51.936;4.788;2023-01-31T16:34:21;102124.00;;;7.66;94.44
47220;BME280;32961;51.936;4.788;2023-01-31T16:36:53;102121.97;;;7.70;94.26
47220;BME280;32961;51.936;4.788;2023-01-31T16:39:29;102113.50;;;7.76;94.04
47220;BME280;32961;51.936;4.788;2023-01-31T16:41:58;102120.94;;;7.73;94.56
47220;BME280;32961;51.936;4.788;2023-01-31T16:44:32;102117.53;;;7.69;94.47
47220;BME280;32961;51.936;4.788;2023-01-31T16:47:01;102113.78;;;7.71;94.48
47220;BME280;32961;51.936;4.788;2023-01-31T16:49:32;102105.72;;;7.70;94.58
47220;BME280;32961;51.936;4.788;2023-01-31T16:52:16;102105.94;;;7.67;95.12
47220;BME280;32961;51.936;4.788;2023-01-31T16:54:52;102098.19;;;7.61;95.60
47220;BME280;32961;51.936;4.788;2023-01-31T16:57:23;102103.03;;;7.55;95.61
47220;BME280;32961;51.936;4.788;2023-01-31T16:59:53;102109.09;;;7.45;95.90
47220;BME280;32961;51.936;4.788;2023-01-31T17:02:24;102116.69;;;7.38;95.90
47220;BME280;32961;51.936;4.788;2023-01-31T17:04:54;102122.47;;;7.32;95.95
47220;BME280;32961;51.936;4.788;2023-01-31T17:07:25;102117.06;;;7.32;95.09
47220;BME280;32961;51.936;4.788;2023-01-31T17:09:55;102122.81;;;7.26;92.52
47220;BME280;32961;51.936;4.788;2023-01-31T17:12:25;102123.03;;;7.22;91.17
47220;BME280;32961;51.936;4.788;2023-01-31T17:14:55;102131.31;;;7.19;90.16
47220;BME280;32961;51.936;4.788;2023-01-31T17:17:29;102125.66;;;7.08;88.81
47220;BME280;32961;51.936;4.788;2023-01-31T17:19:58;102128.53;;;7.05;88.81
47220;BME280;32961;51.936;4.788;2023-01-31T17:22:26;102119.31;;;7.09;88.74
47220;BME280;32961;51.936;4.788;2023-01-31T17:24:54;102121.81;;;7.12;89.15
47220;BME280;32961;51.936;4.788;2023-01-31T17:27:21;102118.00;;;7.16;89.52
47220;BME280;32961;51.936;4.788;2023-01-31T17:29:50;102120.75;;;7.15;90.00
47220;BME280;32961;51.936;4.788;2023-01-31T17:32:19;102115.81;;;7.07;89.93
47220;BME280;32961;51.936;4.788;2023-01-31T17:34:47;102119.09;;;7.12;90.23
47220;BME280;32961;51.936;4.788;2023-01-31T17:37:15;102114.41;;;7.16;89.86
47220;BME280;32961;51.936;4.788;2023-01-31T17:39:56;102117.13;;;7.00;90.04
47220;BME280;32961;51.936;4.788;2023-01-31T17:42:24;102117.41;;;6.95;90.25
47220;BME280;32961;51.936;4.788;2023-01-31T17:44:52;102121.00;;;6.96;90.61
47220;BME280;32961;51.936;4.788;2023-01-31T17:47:21;102119.59;;;6.88;90.97
47220;BME280;32961;51.936;4.788;2023-01-31T17:49:52;102124.91;;;6.90;91.67
47220;BME280;32961;51.936;4.788;2023-01-31T17:52:20;102123.94;;;6.91;91.15
47220;BME280;32961;51.936;4.788;2023-01-31T17:54:48;102123.44;;;6.84;91.45
47220;BME280;32961;51.936;4.788;2023-01-31T17:57:16;102130.06;;;6.79;91.95
47220;BME280;32961;51.936;4.788;2023-01-31T17:59:43;102121.88;;;6.80;92.65
47220;BME280;32961;51.936;4.788;2023-01-31T18:02:11;102126.16;;;6.84;92.26
47220;BME280;32961;51.936;4.788;2023-01-31T18:04:40;102120.66;;;6.86;92.39
47220;BME280;32961;51.936;4.788;2023-01-31T18:07:08;102127.81;;;6.87;92.03
47220;BME280;32961;51.936;4.788;2023-01-31T18:09:36;102119.09;;;6.82;91.98
47220;BME280;32961;51.936;4.788;2023-01-31T18:12:04;102115.69;;;6.78;91.97
47220;BME280;32961;51.936;4.788;2023-01-31T18:14:32;102125.97;;;6.71;91.79
47220;BME280;32961;51.936;4.788;2023-01-31T18:17:00;102118.31;;;6.64;91.64
47220;BME280;32961;51.936;4.788;2023-01-31T18:19:27;102116.81;;;6.58;91.32
47220;BME280;32961;51.936;4.788;2023-01-31T18:21:58;102104.88;;;6.46;91.06
47220;BME280;32961;51.936;4.788;2023-01-31T18:24:26;102109.16;;;6.50;92.42
47220;BME280;32961;51.936;4.788;2023-01-31T18:26:54;102107.25;;;6.52;90.71
47220;BME280;32961;51.936;4.788;2023-01-31T18:29:22;102117.72;;;6.42;90.43
47220;BME280;32961;51.936;4.788;2023-01-31T18:31:52;102114.72;;;6.47;90.17
47220;BME280;32961;51.936;4.788;2023-01-31T18:34:23;102115.69;;;6.46;90.28
47220;BME280;32961;51.936;4.788;2023-01-31T18:36:51;102113.97;;;6.45;90.72
47220;BME280;32961;51.936;4.788;2023-01-31T18:39:20;102118.03;;;6.36;90.12
47220;BME280;32961;51.936;4.788;2023-01-31T18:41:49;102123.72;;;6.32;89.54
47220;BME280;32961;51.936;4.788;2023-01-31T18:44:17;102126.66;;;6.27;89.69
47220;BME280;32961;51.936;4.788;2023-01-31T18:46:45;102130.56;;;6.21;90.17
47220;BME280;32961;51.936;4.788;2023-01-31T18:49:13;102119.34;;;6.13;89.98
47220;BME280;32961;51.936;4.788;2023-01-31T18:51:40;102126.28;;;6.17;89.39
47220;BME280;32961;51.936;4.788;2023-01-31T18:54:08;102119.94;;;6.18;89.41
47220;BME280;32961;51.936;4.788;2023-01-31T18:56:37;102129.84;;;6.18;88.53
47220;BME280;32961;51.936;4.788;2023-01-31T18:59:05;102134.38;;;6.17;88.11
47220;BME280;32961;51.936;4.788;2023-01-31T19:01:33;102134.53;;;6.14;87.30
47220;BME280;32961;51.936;4.788;2023-01-31T19:04:01;102129.00;;;6.17;87.90
47220;BME280;32961;51.936;4.788;2023-01-31T19:06:32;102122.03;;;6.13;87.23
47220;BME280;32961;51.936;4.788;2023-01-31T19:09:03;102128.19;;;6.15;88.30
47220;BME280;32961;51.936;4.788;2023-01-31T19:11:31;102123.75;;;6.14;87.20
47220;BME280;32961;51.936;4.788;2023-01-31T19:14:03;102124.63;;;6.15;86.84
47220;BME280;32961;51.936;4.788;2023-01-31T19:16:35;102131.78;;;6.16;86.83
47220;BME280;32961;51.936;4.788;2023-01-31T19:19:03;102127.13;;;6.02;87.21
47220;BME280;32961;51.936;4.788;2023-01-31T19:21:32;102126.88;;;6.06;86.74
47220;BME280;32961;51.936;4.788;2023-01-31T19:24:01;102129.03;;;6.00;86.41
47220;BME280;32961;51.936;4.788;2023-01-31T19:26:31;102137.16;;;5.98;86.74
47220;BME280;32961;51.936;4.788;2023-01-31T19:29:00;102128.22;;;5.98;86.61
47220;BME280;32961;51.936;4.788;2023-01-31T19:31:31;102129.34;;;5.93;86.95
47220;BME280;32961;51.936;4.788;2023-01-31T19:34:00;102141.84;;;5.94;86.31
47220;BME280;32961;51.936;4.788;2023-01-31T19:36:31;102127.41;;;5.95;85.77
47220;BME280;32961;51.936;4.788;2023-01-31T19:39:01;102120.97;;;5.98;86.78
47220;BME280;32961;51.936;4.788;2023-01-31T19:41:31;102115.06;;;5.91;85.42
47220;BME280;32961;51.936;4.788;2023-01-31T19:44:00;102121.75;;;5.84;84.92
47220;BME280;32961;51.936;4.788;2023-01-31T19:46:31;102112.94;;;5.81;84.39
47220;BME280;32961;51.936;4.788;2023-01-31T19:48:59;102117.38;;;5.82;84.52
47220;BME280;32961;51.936;4.788;2023-01-31T19:51:27;102120.16;;;5.80;84.10
47220;BME280;32961;51.936;4.788;2023-01-31T19:53:57;102122.53;;;5.86;84.56
47220;BME280;32961;51.936;4.788;2023-01-31T19:56:26;102116.97;;;5.89;84.72
47220;BME280;32961;51.936;4.788;2023-01-31T19:58:54;102108.88;;;5.89;84.36
47220;BME280;32961;51.936;4.788;2023-01-31T20:01:23;102109.75;;;5.90;83.94
47220;BME280;32961;51.936;4.788;2023-01-31T20:03:52;102107.13;;;5.88;85.01
47220;BME280;32961;51.936;4.788;2023-01-31T20:06:23;102108.25;;;5.84;85.02
47220;BME280;32961;51.936;4.788;2023-01-31T20:08:52;102104.03;;;5.78;84.52
47220;BME280;32961;51.936;4.788;2023-01-31T20:11:20;102109.63;;;5.75;85.33
47220;BME280;32961;51.936;4.788;2023-01-31T20:13:48;102112.56;;;5.71;85.36
47220;BME280;32961;51.936;4.788;2023-01-31T20:16:17;102109.94;;;5.69;85.67
47220;BME280;32961;51.936;4.788;2023-01-31T20:18:45;102101.38;;;5.61;85.99
47220;BME280;32961;51.936;4.788;2023-01-31T20:21:16;102105.13;;;5.58;86.42
47220;BME280;32961;51.936;4.788;2023-01-31T20:23:47;102117.81;;;5.56;85.65
47220;BME280;32961;51.936;4.788;2023-01-31T20:26:16;102114.34;;;5.54;85.84
47220;BME280;32961;51.936;4.788;2023-01-31T20:28:44;102113.69;;;5.49;86.55
47220;BME280;32961;51.936;4.788;2023-01-31T20:31:13;102105.78;;;5.46;86.49
47220;BME280;32961;51.936;4.788;2023-01-31T20:33:41;102112.19;;;5.43;85.46
47220;BME280;32961;51.936;4.788;2023-01-31T20:36:10;102109.72;;;5.39;86.69
47220;BME280;32961;51.936;4.788;2023-01-31T20:38:39;102113.56;;;5.35;86.57
47220;BME280;32961;51.936;4.788;2023-01-31T20:41:08;102105.69;;;5.30;86.45
47220;BME280;32961;51.936;4.788;2023-01-31T20:43:36;102098.56;;;5.29;86.92
47220;BME280;32961;51.936;4.788;2023-01-31T20:46:05;102098.66;;;5.27;86.91
47220;BME280;32961;51.936;4.788;2023-01-31T20:48:34;102096.91;;;5.26;87.08
47220;BME280;32961;51.936;4.788;2023-01-31T20:51:02;102092.53;;;5.24;87.33
47220;BME280;32961;51.936;4.788;2023-01-31T20:53:30;102093.47;;;5.23;87.93
47220;BME280;32961;51.936;4.788;2023-01-31T20:56:01;102090.94;;;5.20;87.71
47220;BME280;32961;51.936;4.788;2023-01-31T20:58:31;102089.28;;;5.17;88.08
47220;BME280;32961;51.936;4.788;2023-01-31T21:00:59;102075.16;;;5.12;87.59
47220;BME280;32961;51.936;4.788;2023-01-31T21:03:31;102085.22;;;5.08;88.18
47220;BME280;32961;51.936;4.788;2023-01-31T21:06:00;102085.41;;;5.05;88.18
47220;BME280;32961;51.936;4.788;2023-01-31T21:08:32;102074.84;;;5.01;89.20
47220;BME280;32961;51.936;4.788;2023-01-31T21:11:06;102074.84;;;5.01;89.42
47220;BME280;32961;51.936;4.788;2023-01-31T21:13:34;102082.03;;;5.00;88.50
47220;BME280;32961;51.936;4.788;2023-01-31T21:16:04;102081.19;;;5.00;89.57
47220;BME280;32961;51.936;4.788;2023-01-31T21:18:34;102083.25;;;4.94;89.58
47220;BME280;32961;51.936;4.788;2023-01-31T21:21:02;102068.97;;;4.92;90.03
47220;BME280;32961;51.936;4.788;2023-01-31T21:23:32;102066.28;;;4.92;89.03
47220;BME280;32961;51.936;4.788;2023-01-31T21:26:01;102064.03;;;4.83;89.78
47220;BME280;32961;51.936;4.788;2023-01-31T21:28:31;102061.34;;;4.83;89.74
47220;BME280;32961;51.936;4.788;2023-01-31T21:30:59;102064.22;;;4.80;90.10
47220;BME280;32961;51.936;4.788;2023-01-31T21:33:28;102066.59;;;4.86;88.73
47220;BME280;32961;51.936;4.788;2023-01-31T21:35:56;102057.47;;;4.89;89.11
47220;BME280;32961;51.936;4.788;2023-01-31T21:38:26;102053.00;;;4.89;88.51
47220;BME280;32961;51.936;4.788;2023-01-31T21:40:58;102062.88;;;4.89;88.62
47220;BME280;32961;51.936;4.788;2023-01-31T21:43:41;102058.44;;;4.88;88.62
47220;BME280;32961;51.936;4.788;2023-01-31T21:46:10;102065.16;;;4.79;87.56
47220;BME280;32961;51.936;4.788;2023-01-31T21:48:38;102049.09;;;4.77;87.44
47220;BME280;32961;51.936;4.788;2023-01-31T21:51:08;102053.53;;;4.78;87.02
47220;BME280;32961;51.936;4.788;2023-01-31T21:53:36;102059.94;;;4.76;87.74
47220;BME280;32961;51.936;4.788;2023-01-31T21:56:06;102057.25;;;4.76;87.79
47220;BME280;32961;51.936;4.788;2023-01-31T21:58:35;102061.66;;;4.77;87.66
47220;BME280;32961;51.936;4.788;2023-01-31T22:01:06;102048.50;;;4.71;86.22
47220;BME280;32961;51.936;4.788;2023-01-31T22:03:35;102046.91;;;4.66;85.89
47220;BME280;32961;51.936;4.788;2023-01-31T22:06:05;102035.13;;;4.69;85.86
47220;BME280;32961;51.936;4.788;2023-01-31T22:08:34;102035.28;;;4.66;86.13
47220;BME280;32961;51.936;4.788;2023-01-31T22:11:03;102039.78;;;4.65;86.55
47220;BME280;32961;51.936;4.788;2023-01-31T22:13:33;102043.44;;;4.64;86.47
47220;BME280;32961;51.936;4.788;2023-01-31T22:16:02;102044.53;;;4.60;86.08
47220;BME280;32961;51.936;4.788;2023-01-31T22:18:32;102044.44;;;4.62;86.14
47220;BME280;32961;51.936;4.788;2023-01-31T22:21:01;102031.88;;;4.62;86.16
47220;BME280;32961;51.936;4.788;2023-01-31T22:23:30;102033.84;;;4.59;84.89
47220;BME280;32961;51.936;4.788;2023-01-31T22:26:01;102037.41;;;4.59;85.50
47220;BME280;32961;51.936;4.788;2023-01-31T22:28:29;102034.63;;;4.61;85.04
47220;BME280;32961;51.936;4.788;2023-01-31T22:30:57;102034.63;;;4.61;85.11
47220;BME280;32961;51.936;4.788;2023-01-31T22:33:25;102043.69;;;4.60;84.81
47220;BME280;32961;51.936;4.788;2023-01-31T22:35:55;102044.63;;;4.59;85.61
47220;BME280;32961;51.936;4.788;2023-01-31T22:38:22;102039.28;;;4.57;85.36
47220;BME280;32961;51.936;4.788;2023-01-31T22:40:50;102037.56;;;4.56;85.25
47220;BME280;32961;51.936;4.788;2023-01-31T22:43:19;102043.09;;;4.53;84.85
47220;BME280;32961;51.936;4.788;2023-01-31T22:45:49;102048.56;;;4.52;84.62
47220;BME280;32961;51.936;4.788;2023-01-31T22:48:19;102044.22;;;4.49;84.02
47220;BME280;32961;51.936;4.788;2023-01-31T22:50:52;102050.66;;;4.45;84.07
47220;BME280;32961;51.936;4.788;2023-01-31T22:53:22;102050.66;;;4.45;84.55
47220;BME280;32961;51.936;4.788;2023-01-31T22:55:50;102053.53;;;4.42;84.47
47220;BME280;32961;51.936;4.788;2023-01-31T22:58:18;102057.28;;;4.38;84.23
47220;BME280;32961;51.936;4.788;2023-01-31T23:00:47;102056.44;;;4.37;84.35
47220;BME280;32961;51.936;4.788;2023-01-31T23:03:15;102053.81;;;4.36;84.15
47220;BME280;32961;51.936;4.788;2023-01-31T23:05:43;102054.59;;;4.38;85.00
47220;BME280;32961;51.936;4.788;2023-01-31T23:08:11;102052.72;;;4.40;84.68
47220;BME280;32961;51.936;4.788;2023-01-31T23:10:41;102054.47;;;4.41;84.90
47220;BME280;32961;51.936;4.788;2023-01-31T23:13:11;102053.81;;;4.36;84.63
47220;BME280;32961;51.936;4.788;2023-01-31T23:15:39;102059.00;;;4.40;84.65
47220;BME280;32961;51.936;4.788;2023-01-31T23:18:07;102047.25;;;4.41;85.27
47220;BME280;32961;51.936;4.788;2023-01-31T23:20:35;102055.28;;;4.43;85.13
47220;BME280;32961;51.936;4.788;2023-01-31T23:23:02;102054.31;;;4.44;85.44
47220;BME280;32961;51.936;4.788;2023-01-31T23:25:30;102047.03;;;4.46;85.33
47220;BME280;32961;51.936;4.788;2023-01-31T23:27:59;102032.63;;;4.47;85.21
47220;BME280;32961;51.936;4.788;2023-01-31T23:30:27;102045.97;;;4.50;85.78
47220;BME280;32961;51.936;4.788;2023-01-31T23:32:55;102036.91;;;4.51;85.40
47220;BME280;32961;51.936;4.788;2023-01-31T23:35:23;102034.06;;;4.54;85.25
47220;BME280;32961;51.936;4.788;2023-01-31T23:37:51;102026.00;;;4.54;85.15
47220;BME280;32961;51.936;4.788;2023-01-31T23:40:19;102025.91;;;4.56;85.67
47220;BME280;32961;51.936;4.788;2023-01-31T23:42:48;102027.53;;;4.60;85.47
47220;BME280;32961;51.936;4.788;2023-01-31T23:45:17;102031.78;;;4.64;85.52
47220;BME280;32961;51.936;4.788;2023-01-31T23:47:45;102018.16;;;4.67;85.90
47220;BME280;32961;51.936;4.788;2023-01-31T23:50:12;102007.34;;;4.69;85.98
47220;BME280;32961;51.936;4.788;2023-01-31T23:52:40;101994.66;;;4.71;85.93
47220;BME280;32961;51.936;4.788;2023-01-31T23:55:08;101982.72;;;4.76;85.47
47220;BME280;32961;51.936;4.788;2023-01-31T23:57:36;101972.78;;;4.77;86.74
